Time;durP1;ratioP1;P1;durP2;ratioP2;P2;SDS_P1;SDS_P2;PMS_P1;PMS_P2;Temp;Humidity;BMP_temperature;BMP_pressure;BME280_temperature;BME280_humidity;BME280_pressure;Samples;Min_cycle;Max_cycle;Signal;HPM_P1;HPM_P2
2023/03/06 00:01:01;;;;;;;52.13;27.83;;;2.90;99.90;;;-144.05;84.09;57008.13;5096181;28;20080;-75
2023/03/06 00:03:27;;;;;;;55.13;28.05;;;2.90;99.90;;;-144.05;83.92;56982.66;5097835;28;20020;-75
2023/03/06 00:05:57;;;;;;;51.00;25.80;;;2.90;99.90;;;-144.05;83.82;57016.63;5096256;28;20028;-76
2023/03/06 00:08:26;;;;;;;52.40;24.98;;;2.90;99.90;;;-144.05;84.25;57027.25;5095291;28;20024;-76
2023/03/06 00:10:52;;;;;;;44.00;24.33;;;2.90;99.90;;;-144.05;83.98;57003.88;5096726;28;20028;-75
2023/03/06 00:13:18;;;;;;;48.42;24.52;;;2.90;99.90;;;-144.05;83.67;57010.25;5094454;28;20031;-77
2023/03/06 00:15:47;;;;;;;47.55;24.30;;;2.90;99.90;;;-144.05;83.82;57001.75;5096960;28;20046;-75
2023/03/06 00:18:14;;;;;;;44.15;23.98;;;2.80;99.90;;;-144.05;83.69;57001.75;5095279;28;20478;-76
2023/03/06 00:20:43;;;;;;;41.38;21.35;;;2.80;99.90;;;-144.05;84.04;57001.75;5094594;28;20127;-74
2023/03/06 00:23:11;;;;;;;42.20;20.77;;;2.80;99.90;;;-144.05;83.98;57001.75;5093504;28;20024;-74
2023/03/06 00:25:42;;;;;;;38.63;21.67;;;2.80;99.90;;;-144.05;83.64;57012.38;5076557;28;20491;-75
2023/03/06 00:28:08;;;;;;;44.72;21.60;;;2.80;99.90;;;-144.05;83.42;57031.50;5094290;28;20144;-76
2023/03/06 00:30:34;;;;;;;37.13;21.35;;;2.80;99.90;;;-144.05;83.37;56991.13;5076660;28;20057;-75
2023/03/06 00:33:00;;;;;;;39.70;21.45;;;2.80;99.90;;;-144.05;83.43;57031.50;5076082;28;20105;-75
2023/03/06 00:35:25;;;;;;;43.65;23.10;;;2.80;99.90;;;-144.05;83.74;57016.63;5094924;28;20028;-74
2023/03/06 00:37:51;;;;;;;41.40;22.52;;;2.80;99.90;;;-144.05;83.71;56997.50;5093389;28;20055;-74
2023/03/06 00:40:20;;;;;;;39.60;22.23;;;2.80;99.90;;;-144.05;83.63;57008.13;5094299;28;20035;-75
2023/03/06 00:42:47;;;;;;;38.72;21.17;;;2.80;99.90;;;-144.05;83.33;56989.00;5093739;28;20491;-75
2023/03/06 00:45:13;;;;;;;40.80;22.13;;;2.80;99.90;;;-144.05;83.57;57018.75;5093837;28;20107;-75
2023/03/06 00:47:40;;;;;;;38.63;21.17;;;2.80;99.90;;;-144.05;83.33;57029.38;5093879;28;20028;-76
2023/03/06 00:50:08;;;;;;;40.22;20.58;;;2.80;99.90;;;-144.05;83.49;57018.75;5093443;28;20028;-75
2023/03/06 00:52:34;;;;;;;36.85;22.13;;;2.80;99.90;;;-144.05;83.56;56991.13;5092365;28;20029;-75
2023/03/06 00:55:00;;;;;;;45.17;22.60;;;2.80;99.90;;;-144.05;83.28;57001.75;5093793;28;20032;-76
2023/03/06 00:57:25;;;;;;;37.03;21.35;;;2.80;99.90;;;-144.05;83.22;57010.25;5093612;28;20111;-75
2023/03/06 00:59:52;;;;;;;45.20;24.05;;;2.70;99.90;;;-144.05;83.38;57018.75;5093478;28;20031;-74
2023/03/06 01:02:18;;;;;;;39.35;21.63;;;2.70;99.90;;;-144.05;83.43;56995.38;5092208;28;20020;-76
2023/03/06 01:04:44;;;;;;;41.08;21.80;;;2.80;99.90;;;-144.05;83.17;56999.63;5093532;28;20020;-75
2023/03/06 01:07:10;;;;;;;40.97;21.67;;;2.70;99.90;;;-144.05;83.28;57029.38;5093514;28;20107;-75
2023/03/06 01:09:36;;;;;;;43.85;24.27;;;2.70;99.90;;;-144.05;83.54;57010.25;5093206;28;20032;-75
2023/03/06 01:12:02;;;;;;;41.20;23.40;;;2.80;99.90;;;-144.05;83.50;56997.50;5091756;28;20119;-76
2023/03/06 01:14:28;;;;;;;37.00;22.02;;;2.80;99.90;;;-144.05;83.45;57033.63;5097835;28;20024;-74
2023/03/06 01:16:53;;;;;;;40.55;23.02;;;2.80;99.90;;;-144.05;83.59;56984.78;5093647;28;20020;-76
2023/03/06 01:19:19;;;;;;;43.70;23.77;;;2.80;99.90;;;-144.05;83.57;57012.38;5092769;28;20031;-76
2023/03/06 01:21:45;;;;;;;47.97;25.27;;;2.90;99.90;;;-144.05;83.62;56984.78;5092846;28;20028;-74
2023/03/06 01:24:11;;;;;;;47.15;25.15;;;2.90;99.90;;;-144.05;83.59;56999.63;5093138;28;20016;-75
2023/03/06 01:26:37;;;;;;;51.33;26.65;;;2.90;99.90;;;-144.05;83.55;57031.50;5093184;28;20107;-76
2023/03/06 01:29:03;;;;;;;45.95;23.98;;;2.90;99.90;;;-144.05;83.28;56997.50;5092670;28;20483;-76
2023/03/06 01:31:29;;;;;;;45.20;25.00;;;2.90;99.90;;;-144.05;82.97;57008.13;5092653;28;20384;-76
2023/03/06 01:33:55;;;;;;;43.03;26.02;;;2.90;99.90;;;-144.05;83.47;57040.00;5092715;28;20024;-76
2023/03/06 01:36:21;;;;;;;47.05;25.35;;;2.90;99.90;;;-144.05;83.44;56997.50;5093122;28;20107;-76
2023/03/06 01:38:46;;;;;;;45.38;25.33;;;2.90;99.90;;;-144.05;83.17;57027.25;5092634;28;20111;-76
2023/03/06 01:41:16;;;;;;;46.20;25.13;;;2.90;99.90;;;-144.05;83.16;57025.13;5074574;28;20062;-76
2023/03/06 01:43:46;;;;;;;44.40;24.13;;;2.90;99.90;;;-144.05;83.36;56997.50;5074241;28;20111;-76
2023/03/06 01:46:41;;;;;;;45.38;24.30;;;2.90;99.90;;;-144.05;83.60;57012.38;5092682;28;20115;-76
2023/03/06 01:49:35;;;;;;;48.88;28.13;;;2.90;99.90;;;-144.05;83.26;57003.88;5092331;28;20024;-76
2023/03/06 01:52:29;;;;;;;48.50;27.30;;;2.90;99.90;;;-144.05;83.06;57018.75;5092034;28;20484;-76
2023/03/06 01:55:06;;;;;;;51.55;27.13;;;2.90;99.90;;;-144.05;83.17;57023.00;5065483;28;20079;-76
2023/03/06 01:57:51;;;;;;;45.33;26.60;;;2.90;99.90;;;-144.05;83.47;57016.63;5092120;28;20028;-76
2023/03/06 02:00:26;;;;;;;46.75;25.20;;;2.90;99.90;;;-144.05;83.35;57018.75;5073676;28;20127;-76
2023/03/06 02:03:06;;;;;;;54.47;26.67;;;2.90;99.90;;;-144.05;82.90;56984.78;5091990;28;20020;-76
2023/03/06 02:05:33;;;;;;;45.55;26.27;;;2.90;99.90;;;-144.05;82.47;57014.50;5091972;28;20092;-76
2023/03/06 02:08:01;;;;;;;47.58;26.40;;;2.90;99.90;;;-144.05;82.63;57020.88;5091775;28;20032;-76
2023/03/06 02:10:27;;;;;;;46.30;25.02;;;2.90;99.90;;;-144.05;82.62;56991.13;5091862;28;20049;-76
2023/03/06 02:12:53;;;;;;;42.72;23.92;;;2.90;99.90;;;-144.05;82.64;56982.66;5091869;28;20039;-76
2023/03/06 02:15:28;;;;;;;41.38;23.58;;;2.90;99.90;;;-144.05;82.72;57023.00;5092007;28;20028;-76
2023/03/06 02:17:54;;;;;;;46.00;23.88;;;2.90;99.90;;;-144.05;82.57;56976.28;5073650;28;20464;-76
2023/03/06 02:20:44;;;;;;;43.45;23.65;;;2.90;99.90;;;-144.05;82.41;56993.25;5091521;28;20024;-76
2023/03/06 02:23:16;;;;;;;44.33;22.70;;;2.90;99.90;;;-144.05;82.46;57016.63;5091816;28;20032;-76
2023/03/06 02:25:52;;;;;;;43.92;23.92;;;2.90;99.90;;;-144.05;82.68;57035.75;5091788;28;20024;-76
2023/03/06 02:28:21;;;;;;;39.65;20.90;;;2.90;99.90;;;-144.05;82.33;57003.88;5091309;28;20020;-76
2023/03/06 02:30:52;;;;;;;39.83;23.17;;;2.90;99.90;;;-144.05;82.72;57006.00;5091442;28;20486;-76
2023/03/06 02:33:25;;;;;;;43.28;23.17;;;2.90;99.90;;;-144.05;82.22;57018.75;5091587;28;20521;-76
2023/03/06 02:36:01;;;;;;;42.95;23.13;;;2.90;99.90;;;-144.05;82.42;57014.50;5091511;28;20051;-76
2023/03/06 02:38:48;;;;;;;39.47;24.00;;;2.90;99.90;;;-144.05;82.36;57027.25;5091259;28;20028;-76
2023/03/06 02:41:15;;;;;;;45.47;24.15;;;2.90;99.90;;;-144.05;82.21;57006.00;5091492;28;20027;-76
2023/03/06 02:43:46;;;;;;;46.42;24.50;;;2.90;99.90;;;-144.05;82.19;56997.50;5091703;28;20107;-77
2023/03/06 02:46:12;;;;;;;48.25;24.20;;;2.90;99.90;;;-144.05;82.56;56997.50;5091510;28;20086;-76
2023/03/06 02:48:38;;;;;;;41.42;22.77;;;2.90;99.90;;;-144.05;82.56;57016.63;5091175;28;20036;-76
2023/03/06 02:51:04;;;;;;;44.20;24.58;;;2.90;99.90;;;-144.05;82.46;57020.88;5072716;28;20114;-76
2023/03/06 02:53:30;;;;;;;41.53;23.65;;;2.80;99.90;;;-144.05;82.43;57035.75;5112360;22;20128;-77
2023/03/06 02:55:56;;;;;;;41.15;24.75;;;2.80;99.90;;;-144.05;82.51;57012.38;5091936;28;20104;-77
2023/03/06 02:58:22;;;;;;;44.00;23.67;;;2.80;99.90;;;-144.05;81.72;57003.88;5074669;28;20039;-77
2023/03/06 03:00:49;;;;;;;41.55;23.40;;;2.80;99.90;;;-144.05;81.78;56999.63;5074883;28;20075;-78
2023/03/06 03:03:16;;;;;;;37.30;21.58;;;2.80;99.90;;;-144.05;81.84;56995.38;5093242;28;20043;-77
2023/03/06 03:05:42;;;;;;;40.17;22.35;;;2.80;99.90;;;-144.05;82.51;57027.25;5093032;28;20024;-78
2023/03/06 03:08:08;;;;;;;39.00;21.92;;;2.80;99.90;;;-144.05;81.99;57012.38;5092352;28;20039;-78
2023/03/06 03:10:33;;;;;;;43.35;23.48;;;2.80;99.90;;;-144.05;82.22;56976.28;5092749;28;20057;-77
2023/03/06 03:12:59;;;;;;;42.10;21.83;;;2.80;99.90;;;-144.05;81.79;57003.88;5074586;28;20399;-78
2023/03/06 03:15:25;;;;;;;41.47;21.70;;;2.80;99.90;;;-144.05;81.92;57029.38;5092679;28;20028;-77
2023/03/06 03:17:51;;;;;;;37.20;21.20;;;2.80;99.90;;;-144.05;82.29;57029.38;5096696;28;20035;-77
2023/03/06 03:20:21;;;;;;;43.47;22.48;;;2.80;99.90;;;-144.05;82.21;57006.00;5096068;28;20024;-77
2023/03/06 03:22:51;;;;;;;37.38;22.60;;;2.80;99.90;;;-144.05;81.81;56997.50;5096341;28;20084;-78
2023/03/06 03:25:18;;;;;;;43.35;23.42;;;2.70;99.90;;;-144.05;82.36;57001.75;5095050;28;20024;-77
2023/03/06 03:27:45;;;;;;;40.40;23.48;;;2.60;99.90;;;-144.05;82.02;57018.75;5078272;28;20032;-78
2023/03/06 03:30:12;;;;;;;41.88;22.45;;;2.60;99.90;;;-144.05;81.87;57012.38;5096132;28;20542;-77
2023/03/06 03:32:38;;;;;;;42.88;22.23;;;2.50;99.90;;;-144.05;83.05;57048.50;5095295;28;20028;-77
2023/03/06 03:35:08;;;;;;;40.67;22.55;;;2.50;99.90;;;-144.05;82.24;57018.75;5095672;28;20034;-75
2023/03/06 03:37:36;;;;;;;42.38;22.67;;;2.50;99.90;;;-144.05;82.41;57006.00;5096042;28;20028;-79
2023/03/06 03:40:03;;;;;;;43.58;21.88;;;2.50;99.90;;;-144.05;82.42;57042.13;5096260;28;20134;-78
2023/03/06 03:42:29;;;;;;;42.35;21.95;;;2.50;99.90;;;-144.05;82.04;56986.91;5096362;28;20047;-76
2023/03/06 03:44:55;;;;;;;41.22;21.98;;;2.50;99.90;;;-144.05;82.19;57010.25;5096356;28;20472;-78
2023/03/06 03:47:21;;;;;;;40.40;21.23;;;2.50;99.90;;;-144.05;82.41;57016.63;5096758;28;20058;-76
2023/03/06 03:49:47;;;;;;;40.20;21.65;;;2.50;99.90;;;-144.05;81.91;57040.00;5096826;28;20055;-77
2023/03/06 03:52:13;;;;;;;41.95;21.20;;;2.60;99.90;;;-144.05;82.33;57023.00;5078423;28;20036;-78
2023/03/06 03:54:38;;;;;;;39.97;22.27;;;2.60;99.90;;;-144.05;82.04;57020.88;5096571;28;20321;-77
2023/03/06 03:57:04;;;;;;;38.13;20.92;;;2.60;99.90;;;-144.05;82.22;57008.13;5096463;28;20020;-76
2023/03/06 03:59:30;;;;;;;41.85;22.70;;;2.60;99.90;;;-144.05;82.14;57010.25;5095875;28;20020;-78
2023/03/06 04:01:56;;;;;;;37.50;21.85;;;2.50;99.90;;;-144.05;82.35;57023.00;5077438;28;20073;-78
2023/03/06 04:04:22;;;;;;;37.53;21.90;;;2.50;99.90;;;-144.05;82.29;57012.38;5095529;28;20020;-78
2023/03/06 04:06:48;;;;;;;43.97;23.85;;;2.50;99.90;;;-144.05;82.60;57029.38;5095767;28;20501;-77
2023/03/06 04:09:14;;;;;;;37.72;21.17;;;2.50;99.90;;;-144.05;82.55;57044.25;5095287;28;20067;-78
2023/03/06 04:11:39;;;;;;;42.45;23.90;;;2.60;99.90;;;-144.05;82.60;57012.38;5095318;28;20024;-77
2023/03/06 04:14:07;;;;;;;41.22;22.70;;;2.50;99.90;;;-144.05;82.48;57001.75;5095342;28;20398;-78
2023/03/06 04:16:33;;;;;;;40.35;22.48;;;2.60;99.90;;;-144.05;82.47;57029.38;5095715;28;20024;-76
2023/03/06 04:18:58;;;;;;;39.67;21.98;;;2.50;99.90;;;-144.05;82.29;57012.38;5095038;28;20179;-78
2023/03/06 04:21:24;;;;;;;43.88;23.63;;;2.50;99.90;;;-144.05;82.33;57029.38;5094124;28;20059;-77
2023/03/06 04:23:50;;;;;;;44.25;22.80;;;2.50;99.90;;;-144.05;82.56;57016.63;5095025;28;20032;-77
2023/03/06 04:26:16;;;;;;;44.65;25.08;;;2.60;99.90;;;-144.05;82.39;57016.63;5095165;28;20032;-77
2023/03/06 04:28:42;;;;;;;48.90;25.45;;;2.50;99.90;;;-144.05;82.31;56989.00;5076879;28;20035;-78
2023/03/06 04:31:11;;;;;;;45.72;25.30;;;2.50;99.90;;;-144.05;82.49;57027.25;5095190;28;20045;-77
2023/03/06 04:33:37;;;;;;;48.72;26.40;;;2.50;99.90;;;-144.05;82.44;57012.38;5094832;28;20111;-77
2023/03/06 04:36:04;;;;;;;44.92;24.85;;;2.60;99.90;;;-144.05;82.52;57018.75;5094163;28;20050;-76
2023/03/06 04:38:30;;;;;;;48.80;25.98;;;2.60;99.90;;;-144.05;82.22;57008.13;5094418;28;20028;-76
2023/03/06 04:40:56;;;;;;;51.22;26.58;;;2.50;99.90;;;-144.05;82.07;57025.13;5094568;28;20082;-78
2023/03/06 04:43:22;;;;;;;45.72;25.48;;;2.60;99.90;;;-144.05;82.10;57010.25;5094636;28;20031;-77
2023/03/06 04:45:48;;;;;;;43.58;23.23;;;2.60;99.90;;;-144.05;82.14;57006.00;5095028;28;20512;-76
2023/03/06 04:48:17;;;;;;;47.17;24.67;;;2.60;99.90;;;-144.05;82.37;57031.50;5094626;28;20055;-77
2023/03/06 04:50:43;;;;;;;44.60;24.20;;;2.60;99.90;;;-144.05;82.34;57001.75;5095062;28;20032;-77
2023/03/06 04:53:09;;;;;;;47.60;24.92;;;2.60;99.90;;;-144.05;81.65;57014.50;5094258;28;20036;-78
2023/03/06 04:55:36;;;;;;;48.13;24.98;;;2.60;99.90;;;-144.05;81.71;56999.63;5093899;28;20055;-74
2023/03/06 04:58:02;;;;;;;46.83;24.73;;;2.60;99.90;;;-144.05;81.76;57018.75;5075313;28;20063;-76
2023/03/06 05:00:30;;;;;;;48.85;25.35;;;2.60;99.90;;;-144.05;82.32;57010.25;5094011;28;20440;-75
2023/03/06 05:02:59;;;;;;;45.83;24.27;;;2.60;99.90;;;-144.05;82.40;57001.75;5092783;28;20081;-77
2023/03/06 05:05:26;;;;;;;45.80;24.63;;;2.60;99.90;;;-144.05;81.94;57016.63;5094148;28;20324;-79
2023/03/06 05:07:53;;;;;;;52.28;23.95;;;2.60;99.90;;;-144.05;81.44;57023.00;5076078;28;20394;-78
2023/03/06 05:10:19;;;;;;;41.03;22.48;;;2.60;99.90;;;-144.05;81.09;56980.53;5093415;28;20028;-79
2023/03/06 05:12:45;;;;;;;32.05;14.32;;;2.60;99.90;;;-144.05;79.84;57014.50;5093680;28;20052;-78
2023/03/06 05:15:13;;;;;;;21.95;13.65;;;2.60;99.90;;;-144.05;78.92;57025.13;5076312;28;20089;-79
2023/03/06 05:17:39;;;;;;;25.27;13.00;;;2.60;99.90;;;-144.05;79.20;57008.13;5094793;28;20039;-77
2023/03/06 05:20:10;;;;;;;26.92;13.73;;;2.50;99.90;;;-144.05;79.15;57020.88;5095685;28;20028;-78
2023/03/06 05:22:36;;;;;;;27.52;14.52;;;2.40;99.90;;;-144.05;79.11;57044.25;5095506;28;20030;-76
2023/03/06 05:25:03;;;;;;;23.58;13.23;;;2.30;99.90;;;-144.05;79.39;57014.50;5094114;28;20036;-77
2023/03/06 05:27:30;;;;;;;28.13;14.98;;;2.20;99.90;;;-144.05;79.82;57025.13;5076830;28;20241;-77
2023/03/06 05:29:56;;;;;;;26.92;14.25;;;2.20;99.90;;;-144.05;79.54;57014.50;5094603;28;20024;-77
2023/03/06 05:32:22;;;;;;;23.70;13.52;;;2.10;99.90;;;-144.05;79.57;57027.25;5076028;28;20336;-78
2023/03/06 05:34:49;;;;;;;23.92;13.88;;;2.10;99.90;;;-144.05;79.67;57008.13;5094298;28;20028;-80
2023/03/06 05:37:15;;;;;;;25.88;13.38;;;2.00;99.90;;;-144.05;79.65;57040.00;5076436;28;20047;-78
2023/03/06 05:39:41;;;;;;;25.77;13.98;;;2.00;99.90;;;-144.05;79.85;56997.50;5075871;28;20430;-78
2023/03/06 05:42:07;;;;;;;27.85;13.15;;;2.00;99.90;;;-144.05;79.92;57016.63;5094763;28;20084;-77
2023/03/06 05:44:35;;;;;;;22.13;12.45;;;2.00;99.90;;;-144.05;79.69;57018.75;5094584;28;20490;-77
2023/03/06 05:47:02;;;;;;;22.48;12.85;;;2.00;99.90;;;-144.05;79.23;57027.25;5093690;28;20077;-76
2023/03/06 05:49:33;;;;;;;23.48;13.27;;;1.90;99.90;;;-144.05;79.26;57014.50;5093602;28;20032;-77
2023/03/06 05:52:03;;;;;;;25.05;14.07;;;1.90;99.90;;;-144.05;79.07;57010.25;5092495;28;20031;-78
2023/03/06 05:54:34;;;;;;;25.52;13.30;;;1.90;99.90;;;-144.05;79.08;57025.13;5096628;28;20086;-78
2023/03/06 05:57:03;;;;;;;27.90;14.98;;;1.90;99.90;;;-144.05;79.55;57014.50;5076588;28;20034;-78
2023/03/06 05:59:31;;;;;;;30.50;16.17;;;1.80;99.90;;;-144.05;79.58;57044.25;5075706;28;20028;-79
2023/03/06 06:01:59;;;;;;;34.15;17.65;;;1.80;99.90;;;-144.05;79.64;57031.50;5075954;28;20075;-77
2023/03/06 06:04:26;;;;;;;34.13;18.48;;;1.70;99.90;;;-144.05;80.31;57014.50;5094283;28;20024;-78
2023/03/06 06:06:59;;;;;;;42.63;20.70;;;1.80;99.90;;;-144.05;80.04;57044.25;5094295;28;20418;-78
2023/03/06 06:09:28;;;;;;;38.83;20.33;;;1.80;99.90;;;-144.05;79.91;57033.63;5092713;28;20028;-78
2023/03/06 06:12:01;;;;;;;45.55;22.05;;;1.80;99.90;;;-144.05;80.12;57065.47;5094235;28;20028;-77
2023/03/06 06:14:28;;;;;;;50.22;23.58;;;1.70;99.90;;;-144.05;80.11;57035.75;5093667;28;20418;-78
2023/03/06 06:16:55;;;;;;;49.90;25.63;;;1.70;99.90;;;-144.05;80.73;57010.25;5092967;28;20502;-78
2023/03/06 06:19:22;;;;;;;56.80;28.45;;;1.80;99.90;;;-144.05;80.68;57042.13;5094072;28;20051;-78
2023/03/06 06:21:53;;;;;;;49.83;26.13;;;1.80;99.90;;;-144.05;80.54;57008.13;5093049;28;20102;-78
2023/03/06 06:24:24;;;;;;;56.40;27.40;;;1.80;99.90;;;-144.05;80.20;57018.75;5093570;28;20027;-77
2023/03/06 06:26:54;;;;;;;50.20;27.08;;;1.90;99.90;;;-144.05;80.84;57018.75;5096255;28;20035;-76
2023/03/06 06:29:22;;;;;;;58.28;27.73;;;1.90;99.90;;;-144.05;81.00;57023.00;5097188;28;20402;-77
2023/03/06 06:31:49;;;;;;;52.58;26.75;;;2.00;99.90;;;-144.05;80.79;57033.63;5094996;28;20028;-78
2023/03/06 06:34:16;;;;;;;50.20;27.20;;;2.00;99.90;;;-144.05;80.87;56997.50;5095018;28;20028;-79
2023/03/06 06:36:43;;;;;;;57.38;25.92;;;2.10;99.90;;;-144.05;80.85;57014.50;5096840;28;20128;-76
2023/03/06 06:39:14;;;;;;;47.17;25.13;;;2.10;99.90;;;-144.05;80.30;57035.75;5109898;28;20027;-77
2023/03/06 06:41:40;;;;;;;45.25;22.48;;;2.20;99.90;;;-144.05;80.17;57042.13;5107237;28;20076;-78
2023/03/06 06:44:13;;;;;;;42.78;22.30;;;2.20;99.90;;;-144.05;80.39;57027.25;5087190;28;20093;-79
2023/03/06 06:46:39;;;;;;;44.38;23.83;;;2.30;99.90;;;-144.05;80.29;57040.00;5084811;28;20046;-78
2023/03/06 06:49:05;;;;;;;40.28;22.60;;;2.30;99.90;;;-144.05;79.88;57010.25;5087303;28;20043;-78
2023/03/06 06:51:33;;;;;;;40.65;22.05;;;2.30;99.90;;;-144.05;80.29;57035.75;5092212;28;20036;-77
2023/03/06 06:54:00;;;;;;;43.30;21.83;;;2.30;99.90;;;-144.05;80.04;57056.97;5077032;28;20157;-75
2023/03/06 06:56:26;;;;;;;42.20;22.70;;;2.30;99.90;;;-144.05;79.72;57018.75;5093873;28;20123;-77
2023/03/06 06:58:58;;;;;;;48.10;22.60;;;2.40;99.90;;;-144.05;79.86;57010.25;5093634;28;20388;-77
2023/03/06 07:01:24;;;;;;;42.38;21.48;;;2.40;99.90;;;-144.05;79.67;56999.63;5093450;28;20032;-76
2023/03/06 07:03:50;;;;;;;43.35;22.67;;;2.40;99.90;;;-144.05;79.40;57023.00;5093557;28;20149;-78
2023/03/06 07:06:16;;;;;;;43.15;22.02;;;2.40;99.90;;;-144.05;79.02;56993.25;5075213;28;20121;-77
2023/03/06 07:08:42;;;;;;;44.60;22.95;;;2.40;99.90;;;-144.05;78.77;57001.75;5092678;28;20047;-78
2023/03/06 07:11:18;;;;;;;39.88;22.02;;;2.40;99.90;;;-144.05;78.86;57031.50;5094018;28;20020;-83
2023/03/06 07:13:46;;;;;;;42.30;22.17;;;2.50;99.90;;;-144.05;78.92;57014.50;5093982;28;20040;-83
2023/03/06 07:16:16;;;;;;;41.40;22.90;;;2.50;99.90;;;-144.05;78.90;57018.75;5093266;28;20055;-79
2023/03/06 07:18:44;;;;;;;41.70;21.73;;;2.50;99.90;;;-144.05;78.62;57010.25;5093234;28;20024;-79
2023/03/06 07:21:10;;;;;;;42.13;21.77;;;2.60;99.90;;;-144.05;78.18;57025.13;5092727;28;20020;-80
2023/03/06 07:23:36;;;;;;;45.22;22.13;;;2.60;99.90;;;-144.05;78.16;57040.00;5093602;28;20168;-77
2023/03/06 07:26:03;;;;;;;40.42;20.83;;;2.60;99.90;;;-144.05;78.13;57018.75;5093396;28;20105;-79
2023/03/06 07:28:29;;;;;;;39.08;20.00;;;2.60;99.90;;;-144.05;77.93;57035.75;5093171;28;20441;-79
2023/03/06 07:30:55;;;;;;;36.42;19.15;;;2.70;99.90;;;-144.05;77.54;56991.13;5092925;28;20028;-78
2023/03/06 07:33:21;;;;;;;37.78;20.30;;;2.70;99.90;;;-144.05;77.85;57035.75;5099970;28;20088;-79
2023/03/06 07:35:46;;;;;;;40.88;21.67;;;2.60;99.90;;;-144.05;77.90;57020.88;5093866;28;20024;-77
2023/03/06 07:38:13;;;;;;;39.47;19.95;;;2.60;99.90;;;-144.05;77.86;57010.25;5093972;28;20432;-79
2023/03/06 07:40:39;;;;;;;43.15;21.52;;;2.70;99.90;;;-144.05;77.67;56999.63;5093997;28;20024;-78
2023/03/06 07:43:05;;;;;;;39.88;20.77;;;2.70;99.90;;;-144.05;77.97;56995.38;5091472;28;20020;-77
2023/03/06 07:45:32;;;;;;;47.83;20.83;;;2.80;99.90;;;-144.05;77.54;57023.00;5093343;28;20065;-79
2023/03/06 07:47:58;;;;;;;39.55;20.27;;;2.80;99.90;;;-144.05;77.41;57010.25;5092779;28;20028;-77
2023/03/06 07:50:24;;;;;;;45.28;20.80;;;2.80;99.90;;;-144.05;76.74;57008.13;5093774;28;20036;-79
2023/03/06 07:52:52;;;;;;;42.75;20.42;;;2.80;99.90;;;-144.05;76.98;57031.50;5093111;28;20459;-77
2023/03/06 07:55:19;;;;;;;44.60;20.38;;;2.90;99.90;;;-144.05;76.26;57018.75;5093311;28;20030;-75
2023/03/06 07:57:45;;;;;;;38.53;20.48;;;3.00;99.90;;;-144.05;76.22;57001.75;5092089;28;20165;-78
2023/03/06 08:00:14;;;;;;;40.97;21.27;;;3.00;99.90;;;-144.05;75.66;57008.13;5091961;28;20021;-80
2023/03/06 08:02:42;;;;;;;47.70;21.65;;;3.00;99.90;;;-144.05;76.29;56999.63;5092279;28;20032;-77
2023/03/06 08:05:14;;;;;;;43.40;21.80;;;3.00;99.90;;;-144.05;76.07;56997.50;5077528;28;20050;-78
2023/03/06 08:07:41;;;;;;;50.50;24.42;;;3.00;99.90;;;-144.05;76.39;57018.75;5096652;28;20024;-75
2023/03/06 08:10:08;;;;;;;51.65;25.58;;;3.00;99.90;;;-144.05;76.82;57014.50;5096359;28;20034;-77
2023/03/06 08:12:34;;;;;;;45.63;22.02;;;3.10;99.90;;;-144.05;76.05;57008.13;5096390;28;20032;-76
2023/03/06 08:14:59;;;;;;;49.10;22.33;;;3.10;99.90;;;-144.05;75.63;56997.50;5096132;28;20058;-78
2023/03/06 08:17:25;;;;;;;47.05;23.88;;;3.10;99.90;;;-144.05;76.22;57027.25;5095931;28;20080;-77
2023/03/06 08:19:51;;;;;;;47.22;23.55;;;3.10;99.90;;;-144.05;76.09;56997.50;5096971;28;20434;-78
2023/03/06 08:22:17;;;;;;;48.28;22.92;;;3.20;99.90;;;-144.05;75.61;57006.00;5098171;28;20038;-78
2023/03/06 08:24:43;;;;;;;47.58;22.55;;;3.20;99.90;;;-144.05;75.31;57018.75;5097971;28;20028;-77
2023/03/06 08:27:08;;;;;;;45.65;22.15;;;3.30;99.90;;;-144.05;75.66;56986.91;5097166;28;20387;-77
2023/03/06 08:29:34;;;;;;;50.38;22.45;;;3.30;99.90;;;-144.05;75.31;57014.50;5096328;28;20043;-77
2023/03/06 08:32:00;;;;;;;44.47;21.55;;;3.30;99.90;;;-144.05;75.54;57001.75;5097011;28;20032;-77
2023/03/06 08:34:26;;;;;;;45.22;22.65;;;3.20;99.90;;;-144.05;75.83;57003.88;5095945;28;20032;-76
2023/03/06 08:36:52;;;;;;;50.50;23.73;;;3.20;99.90;;;-144.05;76.24;56999.63;5095939;28;20028;-77
2023/03/06 08:39:19;;;;;;;49.08;24.70;;;3.10;99.90;;;-144.05;75.77;57040.00;5076632;28;20055;-79
2023/03/06 08:41:46;;;;;;;52.30;24.85;;;3.20;99.90;;;-144.05;76.43;57020.88;5077244;28;20028;-78
2023/03/06 08:44:12;;;;;;;45.75;23.55;;;3.20;99.90;;;-144.05;76.10;57006.00;5093616;28;20070;-76
2023/03/06 08:46:39;;;;;;;48.33;22.48;;;3.20;99.90;;;-144.05;75.73;57006.00;5095867;28;20145;-79
2023/03/06 08:49:05;;;;;;;49.70;24.33;;;3.20;99.90;;;-144.05;76.20;57023.00;5093522;28;20035;-76
2023/03/06 08:51:38;;;;;;;50.45;24.38;;;3.30;99.90;;;-144.05;75.79;56995.38;5094505;28;20062;-79
2023/03/06 08:54:04;;;;;;;52.67;23.92;;;3.30;99.90;;;-144.05;75.53;56995.38;5095685;28;20035;-77
2023/03/06 08:56:33;;;;;;;48.03;22.35;;;3.40;99.90;;;-144.05;75.77;56986.91;5095853;28;20089;-76
2023/03/06 08:59:03;;;;;;;43.22;22.00;;;3.40;99.90;;;-144.05;75.46;57016.63;5094980;28;20050;-77
2023/03/06 09:01:35;;;;;;;46.80;22.20;;;3.40;99.90;;;-144.05;75.84;56991.13;5094861;28;20374;-76
2023/03/06 09:04:08;;;;;;;43.75;21.35;;;3.40;99.90;;;-144.05;76.03;57008.13;5094946;28;20020;-76
2023/03/06 09:06:40;;;;;;;42.22;22.30;;;3.40;99.90;;;-144.05;76.32;57016.63;5094866;28;20042;-76
2023/03/06 09:09:08;;;;;;;48.50;22.35;;;3.40;99.90;;;-144.05;76.37;57008.13;5095446;28;20032;-78
2023/03/06 09:11:35;;;;;;;45.35;21.70;;;3.50;99.90;;;-144.05;76.72;57006.00;5103303;28;20044;-77
2023/03/06 09:14:02;;;;;;;46.40;22.58;;;3.50;99.90;;;-144.05;76.99;57016.63;5100124;28;20056;-78
2023/03/06 09:16:28;;;;;;;39.53;21.48;;;3.40;99.90;;;-144.05;77.60;57001.75;5096787;28;20032;-79
2023/03/06 09:18:54;;;;;;;40.88;20.75;;;3.40;99.90;;;-144.05;77.41;57001.75;5080850;28;20471;-78
2023/03/06 09:21:22;;;;;;;42.65;20.65;;;3.50;99.90;;;-144.05;77.46;56972.03;5104969;28;20463;-78
2023/03/06 09:23:49;;;;;;;38.67;20.77;;;3.50;99.90;;;-144.05;77.33;57040.00;5099552;28;20028;-77
2023/03/06 09:26:16;;;;;;;41.80;21.27;;;3.50;99.90;;;-144.05;78.23;57029.38;5099625;28;20036;-76
2023/03/06 09:28:42;;;;;;;38.47;20.10;;;3.50;99.90;;;-144.05;78.77;56984.78;5098777;28;20086;-76
2023/03/06 09:31:16;;;;;;;35.20;21.10;;;3.40;99.90;;;-144.05;78.53;56991.13;5097002;28;20483;-79
2023/03/06 09:33:44;;;;;;;38.80;20.83;;;3.30;99.90;;;-144.05;78.27;57008.13;5096017;28;20016;-77
2023/03/06 09:36:19;;;;;;;40.17;21.38;;;3.30;99.90;;;-144.05;78.18;57006.00;5094224;28;20032;-77
2023/03/06 09:38:48;;;;;;;39.35;20.65;;;3.30;99.90;;;-144.05;78.70;57025.13;5093574;28;20123;-77
2023/03/06 09:41:40;;;;;;;43.10;22.63;;;3.30;99.90;;;-144.05;78.38;57016.63;5093801;28;20480;-75
2023/03/06 09:44:18;;;;;;;44.45;21.50;;;3.30;99.90;;;-144.05;78.46;57023.00;5093380;28;20042;-77
2023/03/06 09:47:37;;;;;;;42.08;20.58;;;3.40;99.90;;;-144.05;78.96;56999.63;5094816;28;20059;-76
2023/03/06 09:50:53;;;;;;;44.95;21.48;;;3.50;99.90;;;-144.05;78.41;57006.00;5095357;28;20020;-76
2023/03/06 09:54:15;;;;;;;43.08;21.55;;;3.70;99.90;;;-144.05;77.36;56967.78;5029247;28;20044;-78
2023/03/06 09:56:49;;;;;;;33.78;19.10;;;3.90;99.90;;;-144.05;76.41;56993.25;5052530;28;20044;-77
2023/03/06 09:59:24;;;;;;;33.10;18.27;;;3.90;99.90;;;-144.05;76.50;57006.00;5092896;28;20027;-78
2023/03/06 10:02:17;;;;;;;33.90;19.83;;;3.80;99.90;;;-144.05;77.96;56984.78;5094915;28;20024;-78
2023/03/06 10:04:53;;;;;;;38.00;19.73;;;3.60;99.90;;;-144.05;77.49;57018.75;5076901;28;20024;-77
2023/03/06 10:07:27;;;;;;;36.90;19.88;;;3.50;99.90;;;-144.05;77.81;57010.25;5076292;28;20039;-76